sensor_id;sensor_type;location;lat;lon;timestamp;pressure;altitude;pressure_sealevel;temperature;humidity
39141;BME280;24875;48.436;10.298;2023-01-29T00:02:25;97198.00;;;1.11;98.99
39141;BME280;24875;48.436;10.298;2023-01-29T00:04:51;97196.78;;;1.17;99.70
39141;BME280;24875;48.436;10.298;2023-01-29T00:07:18;97201.66;;;0.95;100.00
39141;BME280;24875;48.436;10.298;2023-01-29T00:09:45;97216.34;;;1.08;100.00
39141;BME280;24875;48.436;10.298;2023-01-29T00:12:11;97225.22;;;1.18;100.00
39141;BME280;24875;48.436;10.298;2023-01-29T00:14:37;97221.25;;;1.13;99.91
39141;BME280;24875;48.436;10.298;2023-01-29T00:17:05;97230.13;;;1.22;100.00
39141;BME280;24875;48.436;10.298;2023-01-29T00:19:31;97230.16;;;1.09;100.00
39141;BME280;24875;48.436;10.298;2023-01-29T00:21:58;97230.16;;;1.09;100.00
39141;BME280;24875;48.436;10.298;2023-01-29T00:24:24;97232.38;;;1.15;99.54
39141;BME280;24875;48.436;10.298;2023-01-29T00:26:51;97228.69;;;1.05;100.00
39141;BME280;24875;48.436;10.298;2023-01-29T00:29:17;97234.81;;;1.04;100.00
39141;BME280;24875;48.436;10.298;2023-01-29T00:31:44;97234.34;;;0.97;99.58
39141;BME280;24875;48.436;10.298;2023-01-29T00:34:12;97222.06;;;1.13;100.00
39141;BME280;24875;48.436;10.298;2023-01-29T00:36:38;97223.75;;;1.14;100.00
39141;BME280;24875;48.436;10.298;2023-01-29T00:39:05;97236.19;;;1.09;100.00
39141;BME280;24875;48.436;10.298;2023-01-29T00:41:35;97243.84;;;1.11;100.00
39141;BME280;24875;48.436;10.298;2023-01-29T00:44:19;97223.31;;;1.08;100.00
39141;BME280;24875;48.436;10.298;2023-01-29T00:46:59;97220.81;;;1.06;100.00
39141;BME280;24875;48.436;10.298;2023-01-29T00:49:27;97226.44;;;1.13;100.00
39141;BME280;24875;48.436;10.298;2023-01-29T00:51:54;97227.94;;;1.03;100.00
39141;BME280;24875;48.436;10.298;2023-01-29T00:54:39;97234.72;;;1.05;100.00
39141;BME280;24875;48.436;10.298;2023-01-29T00:57:05;97228.69;;;1.05;100.00
39141;BME280;24875;48.436;10.298;2023-01-29T00:59:31;97226.81;;;1.07;99.85
39141;BME280;24875;48.436;10.298;2023-01-29T01:01:58;97224.97;;;1.09;99.73
39141;BME280;24875;48.436;10.298;2023-01-29T01:04:43;97215.84;;;1.16;99.15
39141;BME280;24875;48.436;10.298;2023-01-29T01:07:10;97226.09;;;1.05;99.53
39141;BME280;24875;48.436;10.298;2023-01-29T01:09:36;97218.44;;;1.16;100.00
39141;BME280;24875;48.436;10.298;2023-01-29T01:12:29;97211.97;;;1.22;99.37
39141;BME280;24875;48.436;10.298;2023-01-29T01:14:55;97219.78;;;1.09;99.45
39141;BME280;24875;48.436;10.298;2023-01-29T01:17:22;97211.44;;;1.04;98.47
39141;BME280;24875;48.436;10.298;2023-01-29T01:19:50;97216.88;;;1.13;99.82
39141;BME280;24875;48.436;10.298;2023-01-29T01:22:16;97221.84;;;1.04;99.32
39141;BME280;24875;48.436;10.298;2023-01-29T01:24:42;97223.88;;;0.99;98.85
39141;BME280;24875;48.436;10.298;2023-01-29T01:27:09;97217.00;;;0.98;99.70
39141;BME280;24875;48.436;10.298;2023-01-29T01:29:35;97216.28;;;0.96;99.44
39141;BME280;24875;48.436;10.298;2023-01-29T01:32:02;97213.75;;;1.08;99.34
39141;BME280;24875;48.436;10.298;2023-01-29T01:34:28;97209.41;;;1.09;99.86
39141;BME280;24875;48.436;10.298;2023-01-29T01:36:56;97203.94;;;0.99;99.11
39141;BME280;24875;48.436;10.298;2023-01-29T01:39:23;97198.38;;;1.05;98.62
39141;BME280;24875;48.436;10.298;2023-01-29T01:41:50;97197.34;;;1.08;100.00
39141;BME280;24875;48.436;10.298;2023-01-29T01:44:50;97204.91;;;1.24;100.00
39141;BME280;24875;48.436;10.298;2023-01-29T01:47:19;97195.94;;;1.16;100.00
39141;BME280;24875;48.436;10.298;2023-01-29T01:49:47;97204.22;;;1.09;100.00
39141;BME280;24875;48.436;10.298;2023-01-29T01:52:16;97201.59;;;1.22;100.00
39141;BME280;24875;48.436;10.298;2023-01-29T01:54:43;97205.13;;;1.08;100.00
39141;BME280;24875;48.436;10.298;2023-01-29T01:57:13;97205.09;;;1.21;100.00
39141;BME280;24875;48.436;10.298;2023-01-29T01:59:42;97205.16;;;0.94;100.00
39141;BME280;24875;48.436;10.298;2023-01-29T02:02:12;97214.91;;;0.90;100.00
39141;BME280;24875;48.436;10.298;2023-01-29T02:04:57;97203.88;;;1.01;100.00
39141;BME280;24875;48.436;10.298;2023-01-29T02:07:44;97205.16;;;0.94;100.00
39141;BME280;24875;48.436;10.298;2023-01-29T02:10:31;97197.00;;;1.00;100.00
39141;BME280;24875;48.436;10.298;2023-01-29T02:13:02;97197.69;;;0.89;100.00
39141;BME280;24875;48.436;10.298;2023-01-29T02:15:28;97194.69;;;0.95;100.00
39141;BME280;24875;48.436;10.298;2023-01-29T02:17:55;97192.94;;;0.96;100.00
39141;BME280;24875;48.436;10.298;2023-01-29T02:20:23;97200.88;;;1.07;100.00
39141;BME280;24875;48.436;10.298;2023-01-29T02:23:10;97193.34;;;1.16;100.00
39141;BME280;24875;48.436;10.298;2023-01-29T02:25:58;97188.59;;;1.22;100.00
39141;BME280;24875;48.436;10.298;2023-01-29T02:28:38;97193.78;;;1.22;100.00
39141;BME280;24875;48.436;10.298;2023-01-29T02:31:11;97191.19;;;1.22;100.00
39141;BME280;24875;48.436;10.298;2023-01-29T02:33:47;97194.13;;;1.30;100.00
39141;BME280;24875;48.436;10.298;2023-01-29T02:36:27;97191.22;;;1.35;100.00
39141;BME280;24875;48.436;10.298;2023-01-29T02:39:03;97207.88;;;1.45;100.00
39141;BME280;24875;48.436;10.298;2023-01-29T02:41:38;97202.94;;;1.28;98.32
39141;BME280;24875;48.436;10.298;2023-01-29T02:44:16;97202.66;;;1.32;98.75
39141;BME280;24875;48.436;10.298;2023-01-29T02:46:47;97205.19;;;1.20;98.96
39141;BME280;24875;48.436;10.298;2023-01-29T02:49:22;97203.63;;;1.18;98.63
39141;BME280;24875;48.436;10.298;2023-01-29T02:51:57;97204.22;;;1.09;98.37
39141;BME280;24875;48.436;10.298;2023-01-29T02:54:30;97199.19;;;1.06;98.49
39141;BME280;24875;48.436;10.298;2023-01-29T02:57:03;97196.06;;;1.15;98.45
39141;BME280;24875;48.436;10.298;2023-01-29T02:59:35;97209.41;;;1.09;99.27
39141;BME280;24875;48.436;10.298;2023-01-29T03:02:07;97200.06;;;1.06;98.85
39141;BME280;24875;48.436;10.298;2023-01-29T03:04:40;97199.19;;;1.06;99.47
39141;BME280;24875;48.436;10.298;2023-01-29T03:07:14;97205.00;;;1.23;99.44
39141;BME280;24875;48.436;10.298;2023-01-29T03:10:08;97201.75;;;1.19;99.98
39141;BME280;24875;48.436;10.298;2023-01-29T03:12:37;97205.53;;;1.28;99.56
39141;BME280;24875;48.436;10.298;2023-01-29T03:15:09;97201.00;;;1.31;99.01
39141;BME280;24875;48.436;10.298;2023-01-29T03:17:39;97194.50;;;1.24;99.46
39141;BME280;24875;48.436;10.298;2023-01-29T03:20:10;97204.50;;;1.30;99.16
39141;BME280;24875;48.436;10.298;2023-01-29T03:22:43;97210.44;;;1.32;99.72
39141;BME280;24875;48.436;10.298;2023-01-29T03:25:12;97212.31;;;1.30;98.53
39141;BME280;24875;48.436;10.298;2023-01-29T03:27:59;97211.13;;;1.22;99.54
39141;BME280;24875;48.436;10.298;2023-01-29T03:30:48;97213.38;;;1.14;98.90
39141;BME280;24875;48.436;10.298;2023-01-29T03:33:39;97208.63;;;1.20;99.33
39141;BME280;24875;48.436;10.298;2023-01-29T03:36:10;97208.06;;;1.16;99.49
39141;BME280;24875;48.436;10.298;2023-01-29T03:38:38;97208.81;;;1.18;98.97
39141;BME280;24875;48.436;10.298;2023-01-29T03:41:08;97206.34;;;1.28;99.38
39141;BME280;24875;48.436;10.298;2023-01-29T03:43:44;97205.25;;;1.32;98.46
39141;BME280;24875;48.436;10.298;2023-01-29T03:46:20;97203.97;;;1.25;98.84
39141;BME280;24875;48.436;10.298;2023-01-29T03:48:57;97207.34;;;1.14;98.27
39141;BME280;24875;48.436;10.298;2023-01-29T03:51:29;97203.56;;;1.05;98.77
39141;BME280;24875;48.436;10.298;2023-01-29T03:54:04;97197.34;;;1.08;100.00
39141;BME280;24875;48.436;10.298;2023-01-29T03:56:38;97200.28;;;1.16;100.00
39141;BME280;24875;48.436;10.298;2023-01-29T03:59:18;97204.00;;;1.12;99.67
39141;BME280;24875;48.436;10.298;2023-01-29T04:01:51;97211.31;;;1.19;99.60
39141;BME280;24875;48.436;10.298;2023-01-29T04:04:23;97207.03;;;1.18;99.83
39141;BME280;24875;48.436;10.298;2023-01-29T04:06:51;97201.03;;;1.18;99.17
39141;BME280;24875;48.436;10.298;2023-01-29T04:09:23;97209.94;;;1.14;99.84
39141;BME280;24875;48.436;10.298;2023-01-29T04:11:57;97202.78;;;1.17;99.82
39141;BME280;24875;48.436;10.298;2023-01-29T04:14:26;97212.03;;;0.95;100.00
39141;BME280;24875;48.436;10.298;2023-01-29T04:16:56;97203.56;;;1.05;99.78
39141;BME280;24875;48.436;10.298;2023-01-29T04:19:25;97202.00;;;1.03;100.00
39141;BME280;24875;48.436;10.298;2023-01-29T04:22:01;97198.81;;;1.12;99.15
39141;BME280;24875;48.436;10.298;2023-01-29T04:24:29;97205.16;;;0.94;99.60
39141;BME280;24875;48.436;10.298;2023-01-29T04:27:04;97207.19;;;1.03;100.00
39141;BME280;24875;48.436;10.298;2023-01-29T04:29:39;97197.09;;;0.98;100.00
39141;BME280;24875;48.436;10.298;2023-01-29T04:32:14;97202.75;;;1.05;99.95
39141;BME280;24875;48.436;10.298;2023-01-29T04:34:59;97204.69;;;1.01;99.35
39141;BME280;24875;48.436;10.298;2023-01-29T04:37:34;97207.22;;;0.89;100.00
39141;BME280;24875;48.436;10.298;2023-01-29T04:40:14;97212.03;;;0.95;100.00
39141;BME280;24875;48.436;10.298;2023-01-29T04:42:48;97204.78;;;1.00;100.00
39141;BME280;24875;48.436;10.298;2023-01-29T04:45:20;97209.53;;;0.93;100.00
39141;BME280;24875;48.436;10.298;2023-01-29T04:47:59;97220.94;;;0.91;100.00
39141;BME280;24875;48.436;10.298;2023-01-29T04:50:32;97219.06;;;0.93;100.00
39141;BME280;24875;48.436;10.298;2023-01-29T04:53:04;97212.28;;;1.04;99.84
39141;BME280;24875;48.436;10.298;2023-01-29T04:55:38;97206.06;;;1.07;100.00
39141;BME280;24875;48.436;10.298;2023-01-29T04:58:11;97199.56;;;1.14;100.00
39141;BME280;24875;48.436;10.298;2023-01-29T05:00:41;97207.16;;;1.17;100.00
39141;BME280;24875;48.436;10.298;2023-01-29T05:03:11;97212.06;;;1.21;99.48
39141;BME280;24875;48.436;10.298;2023-01-29T05:05:40;97214.16;;;1.28;99.67
39141;BME280;24875;48.436;10.298;2023-01-29T05:08:09;97218.25;;;1.32;100.00
39141;BME280;24875;48.436;10.298;2023-01-29T05:10:37;97210.34;;;1.34;99.18
39141;BME280;24875;48.436;10.298;2023-01-29T05:13:07;97216.16;;;1.37;98.16
39141;BME280;24875;48.436;10.298;2023-01-29T05:15:38;97222.09;;;1.39;98.93
39141;BME280;24875;48.436;10.298;2023-01-29T05:18:05;97235.03;;;1.27;99.40
39141;BME280;24875;48.436;10.298;2023-01-29T05:20:36;97231.22;;;1.32;99.19
39141;BME280;24875;48.436;10.298;2023-01-29T05:23:03;97223.84;;;1.13;99.52
39141;BME280;24875;48.436;10.298;2023-01-29T05:25:31;97226.44;;;1.13;99.60
39141;BME280;24875;48.436;10.298;2023-01-29T05:27:58;97221.84;;;1.04;97.74
39141;BME280;24875;48.436;10.298;2023-01-29T05:30:31;97231.13;;;0.80;99.85
39141;BME280;24875;48.436;10.298;2023-01-29T05:32:58;97227.69;;;0.93;100.00
39141;BME280;24875;48.436;10.298;2023-01-29T05:35:24;97214.41;;;0.98;100.00
39141;BME280;24875;48.436;10.298;2023-01-29T05:37:54;97218.13;;;0.94;100.00
39141;BME280;24875;48.436;10.298;2023-01-29T05:40:20;97210.56;;;0.91;100.00
39141;BME280;24875;48.436;10.298;2023-01-29T05:42:47;97217.59;;;0.89;99.59
39141;BME280;24875;48.436;10.298;2023-01-29T05:45:13;97216.13;;;0.85;99.00
39141;BME280;24875;48.436;10.298;2023-01-29T05:47:40;97216.31;;;0.82;99.20
39141;BME280;24875;48.436;10.298;2023-01-29T05:50:07;97208.06;;;0.89;99.54
39141;BME280;24875;48.436;10.298;2023-01-29T05:52:34;97208.88;;;0.90;100.00
39141;BME280;24875;48.436;10.298;2023-01-29T05:55:02;97203.56;;;1.05;100.00
39141;BME280;24875;48.436;10.298;2023-01-29T05:57:28;97204.38;;;1.06;100.00
39141;BME280;24875;48.436;10.298;2023-01-29T05:59:55;97210.22;;;1.09;100.00
39141;BME280;24875;48.436;10.298;2023-01-29T06:02:22;97208.38;;;1.11;100.00
39141;BME280;24875;48.436;10.298;2023-01-29T06:04:49;97210.06;;;1.12;99.82
39141;BME280;24875;48.436;10.298;2023-01-29T06:07:17;97209.50;;;1.07;100.00
39141;BME280;24875;48.436;10.298;2023-01-29T06:09:43;97219.13;;;1.05;100.00
39141;BME280;24875;48.436;10.298;2023-01-29T06:12:11;97218.88;;;0.96;100.00
39141;BME280;24875;48.436;10.298;2023-01-29T06:14:38;97220.94;;;0.91;100.00
39141;BME280;24875;48.436;10.298;2023-01-29T06:17:04;97213.16;;;0.77;100.00
39141;BME280;24875;48.436;10.298;2023-01-29T06:19:31;97215.56;;;0.80;100.00
39141;BME280;24875;48.436;10.298;2023-01-29T06:21:57;97214.84;;;0.78;100.00
39141;BME280;24875;48.436;10.298;2023-01-29T06:24:24;97205.28;;;0.78;100.00
39141;BME280;24875;48.436;10.298;2023-01-29T06:26:50;97212.63;;;0.58;99.96
39141;BME280;24875;48.436;10.298;2023-01-29T06:29:18;97207.44;;;0.72;100.00
39141;BME280;24875;48.436;10.298;2023-01-29T06:31:44;97202.72;;;0.64;99.47
39141;BME280;24875;48.436;10.298;2023-01-29T06:34:11;97202.72;;;0.64;100.00
39141;BME280;24875;48.436;10.298;2023-01-29T06:36:37;97193.00;;;0.68;100.00
39141;BME280;24875;48.436;10.298;2023-01-29T06:39:05;97192.44;;;0.63;100.00
39141;BME280;24875;48.436;10.298;2023-01-29T06:41:33;97193.25;;;0.77;100.00
39141;BME280;24875;48.436;10.298;2023-01-29T06:43:59;97183.50;;;0.81;99.97
39141;BME280;24875;48.436;10.298;2023-01-29T06:46:27;97178.22;;;0.82;100.00
39141;BME280;24875;48.436;10.298;2023-01-29T06:48:57;97186.66;;;0.86;99.48
39141;BME280;24875;48.436;10.298;2023-01-29T06:51:23;97190.16;;;0.85;99.11
39141;BME280;24875;48.436;10.298;2023-01-29T06:53:50;97185.75;;;0.87;98.94
39141;BME280;24875;48.436;10.298;2023-01-29T06:56:18;97191.28;;;0.95;98.84
39141;BME280;24875;48.436;10.298;2023-01-29T06:58:45;97191.47;;;0.92;98.25
39141;BME280;24875;48.436;10.298;2023-01-29T07:01:12;97200.19;;;0.91;98.65
39141;BME280;24875;48.436;10.298;2023-01-29T07:03:40;97197.00;;;1.00;98.23
39141;BME280;24875;48.436;10.298;2023-01-29T07:06:08;97199.19;;;1.06;99.67
39141;BME280;24875;48.436;10.298;2023-01-29T07:08:35;97205.13;;;1.08;97.50
39141;BME280;24875;48.436;10.298;2023-01-29T07:11:01;97210.13;;;1.11;96.75
39141;BME280;24875;48.436;10.298;2023-01-29T07:13:28;97215.31;;;1.11;96.71
39141;BME280;24875;48.436;10.298;2023-01-29T07:15:57;97213.84;;;1.07;97.22
39141;BME280;24875;48.436;10.298;2023-01-29T07:18:24;97208.97;;;1.02;96.15
39141;BME280;24875;48.436;10.298;2023-01-29T07:20:52;97204.22;;;1.09;97.18
39141;BME280;24875;48.436;10.298;2023-01-29T07:23:19;97211.44;;;1.04;98.22
39141;BME280;24875;48.436;10.298;2023-01-29T07:25:45;97218.56;;;1.14;98.75
39141;BME280;24875;48.436;10.298;2023-01-29T07:28:14;97215.09;;;2.67;100.00
39141;BME280;24875;48.436;10.298;2023-01-29T07:30:40;97209.03;;;1.92;95.46
39141;BME280;24875;48.436;10.298;2023-01-29T07:33:08;97202.84;;;2.07;96.14
39141;BME280;24875;48.436;10.298;2023-01-29T07:35:37;97200.22;;;1.82;93.98
39141;BME280;24875;48.436;10.298;2023-01-29T07:38:05;97194.88;;;1.71;93.54
39141;BME280;24875;48.436;10.298;2023-01-29T07:40:31;97200.56;;;1.64;95.01
39141;BME280;24875;48.436;10.298;2023-01-29T07:42:58;97214.97;;;1.55;95.42
39141;BME280;24875;48.436;10.298;2023-01-29T07:45:25;97215.94;;;1.54;95.88
39141;BME280;24875;48.436;10.298;2023-01-29T07:47:52;97215.81;;;1.56;94.97
39141;BME280;24875;48.436;10.298;2023-01-29T07:50:19;97215.34;;;1.63;95.45
39141;BME280;24875;48.436;10.298;2023-01-29T07:52:46;97224.38;;;1.70;95.50
39141;BME280;24875;48.436;10.298;2023-01-29T07:55:14;97219.44;;;1.80;95.22
39141;BME280;24875;48.436;10.298;2023-01-29T07:57:40;97226.38;;;1.79;94.96
39141;BME280;24875;48.436;10.298;2023-01-29T08:00:08;97229.09;;;1.78;93.64
39141;BME280;24875;48.436;10.298;2023-01-29T08:02:36;97230.16;;;1.61;93.70
39141;BME280;24875;48.436;10.298;2023-01-29T08:05:03;97221.28;;;1.78;93.21
39141;BME280;24875;48.436;10.298;2023-01-29T08:07:30;97223.13;;;1.76;93.41
39141;BME280;24875;48.436;10.298;2023-01-29T08:09:56;97223.13;;;1.76;93.85
39141;BME280;24875;48.436;10.298;2023-01-29T08:12:24;97230.97;;;1.88;93.57
39141;BME280;24875;48.436;10.298;2023-01-29T08:14:51;97235.63;;;1.83;93.97
39141;BME280;24875;48.436;10.298;2023-01-29T08:17:17;97236.28;;;1.86;94.17
39141;BME280;24875;48.436;10.298;2023-01-29T08:19:43;97229.72;;;1.93;94.93
39141;BME280;24875;48.436;10.298;2023-01-29T08:22:10;97246.63;;;2.87;100.00
39141;BME280;24875;48.436;10.298;2023-01-29T08:24:36;97248.22;;;2.65;96.53
39141;BME280;24875;48.436;10.298;2023-01-29T08:27:03;97248.50;;;2.48;94.66
39141;BME280;24875;48.436;10.298;2023-01-29T08:29:31;97249.97;;;2.40;90.18
39141;BME280;24875;48.436;10.298;2023-01-29T08:31:57;97244.44;;;2.19;87.20
39141;BME280;24875;48.436;10.298;2023-01-29T08:34:25;97250.25;;;2.10;86.72
39141;BME280;24875;48.436;10.298;2023-01-29T08:36:51;97244.81;;;2.01;88.31
39141;BME280;24875;48.436;10.298;2023-01-29T08:39:18;97251.97;;;1.59;87.72
39141;BME280;24875;48.436;10.298;2023-01-29T08:41:44;97246.72;;;1.46;87.22
39141;BME280;24875;48.436;10.298;2023-01-29T08:44:11;97256.94;;;1.49;88.39
39141;BME280;24875;48.436;10.298;2023-01-29T08:46:39;97253.66;;;1.60;86.45
39141;BME280;24875;48.436;10.298;2023-01-29T08:49:05;97261.09;;;1.52;87.52
39141;BME280;24875;48.436;10.298;2023-01-29T08:51:32;97259.06;;;1.57;88.81
39141;BME280;24875;48.436;10.298;2023-01-29T08:53:59;97259.06;;;1.69;89.02
39141;BME280;24875;48.436;10.298;2023-01-29T08:56:25;97251.91;;;1.46;88.15
39141;BME280;24875;48.436;10.298;2023-01-29T08:58:52;97254.53;;;1.46;87.14
39141;BME280;24875;48.436;10.298;2023-01-29T09:01:18;97257.56;;;1.26;88.78
39141;BME280;24875;48.436;10.298;2023-01-29T09:03:46;97250.91;;;1.49;87.37
39141;BME280;24875;48.436;10.298;2023-01-29T09:06:14;97258.34;;;1.41;87.95
39141;BME280;24875;48.436;10.298;2023-01-29T09:08:40;97259.88;;;1.17;88.39
39141;BME280;24875;48.436;10.298;2023-01-29T09:11:07;97262.31;;;1.46;89.37
39141;BME280;24875;48.436;10.298;2023-01-29T09:13:34;97269.38;;;1.44;89.69
39141;BME280;24875;48.436;10.298;2023-01-29T09:16:01;97265.22;;;1.42;88.11
39141;BME280;24875;48.436;10.298;2023-01-29T09:18:28;97270.38;;;1.56;87.35
39141;BME280;24875;48.436;10.298;2023-01-29T09:20:57;97273.09;;;1.40;89.92
39141;BME280;24875;48.436;10.298;2023-01-29T09:23:23;97278.53;;;1.50;88.22
39141;BME280;24875;48.436;10.298;2023-01-29T09:25:50;97279.59;;;1.33;88.65
39141;BME280;24875;48.436;10.298;2023-01-29T09:28:16;97280.41;;;1.48;89.30
39141;BME280;24875;48.436;10.298;2023-01-29T09:30:43;97277.56;;;1.65;88.12
39141;BME280;24875;48.436;10.298;2023-01-29T09:33:10;97273.91;;;1.81;87.90
39141;BME280;24875;48.436;10.298;2023-01-29T09:35:39;97285.16;;;1.94;87.96
39141;BME280;24875;48.436;10.298;2023-01-29T09:38:07;97283.69;;;1.90;86.25
39141;BME280;24875;48.436;10.298;2023-01-29T09:40:39;97280.06;;;1.92;86.20
39141;BME280;24875;48.436;10.298;2023-01-29T09:43:12;97295.75;;;1.91;86.89
39141;BME280;24875;48.436;10.298;2023-01-29T09:45:48;97293.06;;;1.92;87.42
39141;BME280;24875;48.436;10.298;2023-01-29T09:48:15;97297.16;;;1.56;88.25
39141;BME280;24875;48.436;10.298;2023-01-29T09:50:43;97302.81;;;1.89;87.55
39141;BME280;24875;48.436;10.298;2023-01-29T09:53:17;97305.38;;;1.50;91.92
39141;BME280;24875;48.436;10.298;2023-01-29T09:55:48;97296.56;;;1.65;91.70
39141;BME280;24875;48.436;10.298;2023-01-29T09:58:19;97298.69;;;1.73;89.27
39141;BME280;24875;48.436;10.298;2023-01-29T10:00:55;97301.50;;;1.70;88.33
39141;BME280;24875;48.436;10.298;2023-01-29T10:03:40;97296.78;;;1.62;87.13
39141;BME280;24875;48.436;10.298;2023-01-29T10:06:20;97282.63;;;1.80;86.38
39141;BME280;24875;48.436;10.298;2023-01-29T10:09:07;97283.75;;;1.76;86.18
39141;BME280;24875;48.436;10.298;2023-01-29T10:11:45;97267.78;;;1.82;85.50
39141;BME280;24875;48.436;10.298;2023-01-29T10:14:21;97269.56;;;1.68;85.62
39141;BME280;24875;48.436;10.298;2023-01-29T10:17:02;97265.16;;;1.82;86.42
39141;BME280;24875;48.436;10.298;2023-01-29T10:19:46;97254.78;;;1.82;85.34
39141;BME280;24875;48.436;10.298;2023-01-29T10:22:30;97249.69;;;1.93;85.19
39141;BME280;24875;48.436;10.298;2023-01-29T10:25:02;97254.50;;;1.99;85.06
39141;BME280;24875;48.436;10.298;2023-01-29T10:27:31;97264.91;;;1.99;84.66
39141;BME280;24875;48.436;10.298;2023-01-29T10:29:59;97261.50;;;1.84;83.77
39141;BME280;24875;48.436;10.298;2023-01-29T10:32:28;97251.50;;;2.17;84.00
39141;BME280;24875;48.436;10.298;2023-01-29T10:34:59;97250.25;;;2.23;83.04
39141;BME280;24875;48.436;10.298;2023-01-29T10:37:35;97241.75;;;2.33;83.73
39141;BME280;24875;48.436;10.298;2023-01-29T10:40:17;97247.88;;;2.20;84.00
39141;BME280;24875;48.436;10.298;2023-01-29T10:42:49;97233.72;;;2.24;83.52
39141;BME280;24875;48.436;10.298;2023-01-29T10:45:21;97233.63;;;2.13;83.18
39141;BME280;24875;48.436;10.298;2023-01-29T10:48:25;97233.94;;;2.21;82.86
39141;BME280;24875;48.436;10.298;2023-01-29T10:51:01;97232.66;;;1.89;85.21
39141;BME280;24875;48.436;10.298;2023-01-29T10:53:38;97232.94;;;1.84;84.58
39141;BME280;24875;48.436;10.298;2023-01-29T10:56:25;97227.22;;;1.92;84.10
39141;BME280;24875;48.436;10.298;2023-01-29T10:58:54;97230.56;;;1.94;85.05
39141;BME280;24875;48.436;10.298;2023-01-29T11:01:22;97230.81;;;2.16;83.39
39141;BME280;24875;48.436;10.298;2023-01-29T11:03:55;97226.53;;;2.15;83.41
39141;BME280;24875;48.436;10.298;2023-01-29T11:06:28;97219.78;;;2.12;82.58
39141;BME280;24875;48.436;10.298;2023-01-29T11:09:00;97220.63;;;2.13;82.70
39141;BME280;24875;48.436;10.298;2023-01-29T11:11:32;97217.81;;;2.16;82.42
39141;BME280;24875;48.436;10.298;2023-01-29T11:14:04;97216.16;;;2.40;81.07
39141;BME280;24875;48.436;10.298;2023-01-29T11:16:39;97217.00;;;2.40;82.78
39141;BME280;24875;48.436;10.298;2023-01-29T11:19:06;97221.97;;;2.43;83.52
39141;BME280;24875;48.436;10.298;2023-01-29T11:21:49;97224.69;;;2.41;82.47
39141;BME280;24875;48.436;10.298;2023-01-29T11:24:16;97228.94;;;2.05;82.20
39141;BME280;24875;48.436;10.298;2023-01-29T11:26:45;97222.09;;;1.78;83.60
39141;BME280;24875;48.436;10.298;2023-01-29T11:29:33;97213.53;;;2.02;82.51
39141;BME280;24875;48.436;10.298;2023-01-29T11:32:02;97196.34;;;1.75;82.64
39141;BME280;24875;48.436;10.298;2023-01-29T11:34:30;97205.53;;;1.54;84.39
39141;BME280;24875;48.436;10.298;2023-01-29T11:36:57;97203.56;;;1.58;84.20
39141;BME280;24875;48.436;10.298;2023-01-29T11:39:25;97203.06;;;1.65;83.64
39141;BME280;24875;48.436;10.298;2023-01-29T11:41:55;97204.56;;;1.81;85.03
39141;BME280;24875;48.436;10.298;2023-01-29T11:44:32;97200.53;;;1.90;82.73
39141;BME280;24875;48.436;10.298;2023-01-29T11:47:11;97198.03;;;2.01;82.40
39141;BME280;24875;48.436;10.298;2023-01-29T11:49:40;97203.88;;;2.17;83.95
39141;BME280;24875;48.436;10.298;2023-01-29T11:52:10;97210.63;;;2.07;82.02
39141;BME280;24875;48.436;10.298;2023-01-29T11:54:43;97197.03;;;2.16;81.78
39141;BME280;24875;48.436;10.298;2023-01-29T11:57:28;97192.66;;;2.41;81.57
39141;BME280;24875;48.436;10.298;2023-01-29T11:59:57;97191.41;;;2.46;82.19
39141;BME280;24875;48.436;10.298;2023-01-29T12:02:30;97191.41;;;2.22;82.50
39141;BME280;24875;48.436;10.298;2023-01-29T12:04:59;97179.34;;;2.21;82.02
39141;BME280;24875;48.436;10.298;2023-01-29T12:07:29;97174.84;;;2.47;81.91
39141;BME280;24875;48.436;10.298;2023-01-29T12:09:57;97163.16;;;2.65;81.55
39141;BME280;24875;48.436;10.298;2023-01-29T12:12:31;97159.13;;;2.37;82.81
39141;BME280;24875;48.436;10.298;2023-01-29T12:15:21;97147.06;;;2.60;82.21
39141;BME280;24875;48.436;10.298;2023-01-29T12:18:03;97138.72;;;2.68;82.21
39141;BME280;24875;48.436;10.298;2023-01-29T12:20:35;97149.34;;;2.65;82.00
39141;BME280;24875;48.436;10.298;2023-01-29T12:23:12;97143.22;;;2.53;81.99
39141;BME280;24875;48.436;10.298;2023-01-29T12:25:49;97134.78;;;2.62;83.03
39141;BME280;24875;48.436;10.298;2023-01-29T12:28:38;97131.28;;;2.39;81.47
39141;BME280;24875;48.436;10.298;2023-01-29T12:31:17;97135.53;;;2.02;81.82
39141;BME280;24875;48.436;10.298;2023-01-29T12:33:50;97143.16;;;2.05;81.43
39141;BME280;24875;48.436;10.298;2023-01-29T12:36:23;97134.63;;;1.91;82.88
39141;BME280;24875;48.436;10.298;2023-01-29T12:38:52;97128.19;;;2.09;81.55
39141;BME280;24875;48.436;10.298;2023-01-29T12:41:33;97126.63;;;1.94;82.24
39141;BME280;24875;48.436;10.298;2023-01-29T12:44:06;97115.69;;;2.14;83.50
39141;BME280;24875;48.436;10.298;2023-01-29T12:46:40;97116.41;;;2.03;82.33
39141;BME280;24875;48.436;10.298;2023-01-29T12:49:12;97110.91;;;2.20;82.16
39141;BME280;24875;48.436;10.298;2023-01-29T12:51:47;97114.00;;;2.25;83.20
39141;BME280;24875;48.436;10.298;2023-01-29T12:54:18;97108.41;;;2.31;82.87
39141;BME280;24875;48.436;10.298;2023-01-29T12:56:48;97106.50;;;2.45;82.03
39141;BME280;24875;48.436;10.298;2023-01-29T12:59:23;97104.91;;;2.55;82.17
39141;BME280;24875;48.436;10.298;2023-01-29T13:01:53;97104.53;;;2.72;81.38
39141;BME280;24875;48.436;10.298;2023-01-29T13:04:29;97092.28;;;2.74;83.05
39141;BME280;24875;48.436;10.298;2023-01-29T13:07:03;97093.84;;;2.64;81.54
39141;BME280;24875;48.436;10.298;2023-01-29T13:09:35;97090.81;;;2.47;80.24
39141;BME280;24875;48.436;10.298;2023-01-29T13:12:06;97103.66;;;2.13;81.55
39141;BME280;24875;48.436;10.298;2023-01-29T13:14:42;97107.91;;;1.89;83.13
39141;BME280;24875;48.436;10.298;2023-01-29T13:17:13;97101.56;;;1.80;84.93
39141;BME280;24875;48.436;10.298;2023-01-29T13:19:42;97100.34;;;1.86;85.18